createdAt,value
2018-10-02T00:01:53.004Z,8.50
2018-10-02T00:04:21.904Z,8.62
2018-10-02T00:06:50.890Z,8.73
2018-10-02T00:09:19.873Z,8.68
2018-10-02T00:11:54.399Z,8.73
2018-10-02T00:14:26.425Z,8.70
2018-10-02T00:16:55.408Z,8.71
2018-10-02T00:19:24.644Z,8.74
2018-10-02T00:21:53.656Z,8.61
2018-10-02T00:24:22.671Z,8.64
2018-10-02T00:26:51.652Z,8.28
2018-10-02T00:29:20.782Z,8.41
2018-10-02T00:31:49.717Z,8.46
2018-10-02T00:34:18.625Z,8.43
2018-10-02T00:36:47.537Z,8.49
2018-10-02T00:39:16.457Z,8.36
2018-10-02T00:41:45.500Z,8.34
2018-10-02T00:44:14.686Z,8.51
2018-10-02T00:46:43.848Z,8.16
2018-10-02T00:49:12.811Z,8.15
2018-10-02T00:51:41.801Z,8.23
2018-10-02T00:54:10.728Z,8.08
2018-10-02T00:56:39.621Z,8.15
2018-10-02T00:59:08.512Z,8.23
2018-10-02T01:01:37.450Z,8.34
2018-10-02T01:04:06.685Z,8.11
2018-10-02T01:06:35.779Z,8.36
2018-10-02T01:09:07.653Z,8.36
2018-10-02T01:11:36.818Z,8.35
2018-10-02T01:14:05.776Z,8.40
2018-10-02T01:16:34.691Z,8.25
2018-10-02T01:19:03.637Z,8.28
2018-10-02T01:21:32.621Z,8.35
2018-10-02T01:24:01.567Z,8.22
2018-10-02T01:26:30.509Z,8.42
2018-10-02T01:28:59.437Z,8.18
2018-10-02T01:31:28.410Z,8.02
2018-10-02T01:33:57.315Z,8.23
2018-10-02T01:36:26.607Z,8.21
2018-10-02T01:38:55.584Z,8.35
2018-10-02T01:41:24.524Z,8.31
2018-10-02T01:43:53.713Z,8.19
2018-10-02T01:46:22.808Z,8.04
2018-10-02T01:48:51.875Z,8.12
2018-10-02T01:51:20.826Z,8.36
2018-10-02T01:53:49.812Z,8.18
2018-10-02T01:56:18.772Z,8.11
2018-10-02T01:58:47.813Z,8.10
2018-10-02T02:01:16.809Z,8.15
2018-10-02T02:03:45.766Z,8.03
2018-10-02T02:06:14.686Z,7.76
2018-10-02T02:08:43.599Z,7.82
2018-10-02T02:11:12.531Z,7.81
2018-10-02T02:13:41.507Z,8.10
2018-10-02T02:16:10.387Z,7.90
2018-10-02T02:18:39.297Z,7.89
2018-10-02T02:21:12.171Z,7.92
2018-10-02T02:23:41.048Z,8.05
2018-10-02T02:26:09.961Z,8.05
2018-10-02T02:28:38.895Z,7.88
2018-10-02T02:31:07.798Z,7.86
2018-10-02T02:33:36.739Z,7.72
2018-10-02T02:36:06.610Z,7.99
2018-10-02T02:38:35.617Z,7.97
2018-10-02T02:41:04.566Z,7.97
2018-10-02T02:43:33.464Z,7.79
2018-10-02T02:46:02.566Z,7.63
2018-10-02T02:49:35.232Z,7.87
2018-10-02T02:52:04.184Z,7.73
2018-10-02T02:54:39.396Z,7.70
2018-10-02T02:57:08.311Z,7.73
2018-10-02T02:59:37.305Z,7.83
2018-10-02T03:02:06.224Z,7.74
2018-10-02T03:04:35.146Z,7.84
2018-10-02T03:07:04.071Z,7.79
2018-10-02T03:09:33.043Z,7.79
2018-10-02T03:12:01.941Z,7.62
2018-10-02T03:14:30.844Z,7.66
2018-10-02T03:16:59.847Z,7.69
2018-10-02T03:19:28.740Z,7.47
2018-10-02T03:21:57.716Z,7.61
2018-10-02T03:24:26.570Z,7.53
2018-10-02T03:26:56.726Z,7.74
2018-10-02T03:29:25.690Z,7.73
2018-10-02T03:31:54.604Z,7.76
2018-10-02T03:34:23.557Z,7.59
2018-10-02T03:36:52.964Z,7.55
2018-10-02T03:39:21.872Z,7.50
2018-10-02T03:41:50.811Z,7.63
2018-10-02T03:44:19.682Z,7.51
2018-10-02T03:46:48.566Z,7.49
2018-10-02T03:49:17.521Z,7.72
2018-10-02T03:51:46.439Z,7.67
2018-10-02T03:54:15.356Z,7.80
2018-10-02T03:56:44.248Z,7.81
2018-10-02T03:59:13.197Z,7.59
2018-10-02T04:01:42.146Z,7.60
2018-10-02T04:04:11.042Z,7.64
2018-10-02T04:06:40.026Z,7.68
2018-10-02T04:09:10.132Z,7.60
2018-10-02T04:11:39.041Z,7.80
2018-10-02T04:14:08.563Z,7.76
2018-10-02T04:16:37.801Z,7.74
2018-10-02T04:19:06.672Z,7.79
2018-10-02T04:21:36.470Z,7.85
2018-10-02T04:24:07.233Z,7.74
2018-10-02T04:26:37.101Z,7.79
2018-10-02T04:29:06.598Z,7.74
2018-10-02T04:31:36.837Z,7.72
2018-10-02T04:34:05.891Z,7.79
2018-10-02T04:36:34.826Z,7.79
2018-10-02T04:39:05.124Z,7.68
2018-10-02T04:41:34.103Z,7.83
2018-10-02T04:44:03.028Z,7.74
2018-10-02T04:46:31.983Z,7.67
2018-10-02T04:49:00.913Z,7.60
2018-10-02T04:51:29.824Z,7.77
2018-10-02T04:53:58.756Z,7.73
2018-10-02T04:56:27.719Z,7.70
2018-10-02T04:58:56.630Z,7.79
2018-10-02T05:01:25.506Z,7.70
2018-10-02T05:03:54.456Z,7.85
2018-10-02T05:06:23.409Z,7.99
2018-10-02T05:08:52.425Z,7.94
2018-10-02T05:11:21.723Z,7.85
2018-10-02T05:13:50.679Z,7.82
2018-10-02T05:16:19.586Z,7.60
2018-10-02T05:18:48.484Z,7.83
2018-10-02T05:21:17.423Z,7.86
2018-10-02T05:23:46.296Z,7.96
2018-10-02T05:26:15.241Z,7.81
2018-10-02T05:28:44.121Z,8.02
2018-10-02T05:31:13.043Z,7.92
2018-10-02T05:33:42.032Z,7.89
2018-10-02T05:36:10.892Z,8.01
2018-10-02T05:38:39.853Z,8.02
2018-10-02T05:41:08.797Z,8.04
2018-10-02T05:43:37.761Z,7.91
2018-10-02T05:46:06.794Z,8.10
2018-10-02T05:48:35.690Z,7.91
2018-10-02T05:51:04.606Z,7.98
2018-10-02T05:53:33.501Z,8.13
2018-10-02T05:56:02.426Z,8.02
2018-10-02T05:58:31.467Z,8.00
2018-10-02T06:01:00.299Z,8.08
2018-10-02T06:03:29.189Z,8.08
2018-10-02T06:05:58.183Z,8.06
2018-10-02T06:08:27.113Z,7.91
2018-10-02T06:10:56.021Z,8.10
2018-10-02T06:13:25.089Z,8.10
2018-10-02T06:15:53.988Z,8.15
2018-10-02T06:18:22.917Z,8.16
2018-10-02T06:20:51.829Z,8.14
2018-10-02T06:23:20.787Z,8.06
2018-10-02T06:25:49.686Z,8.18
2018-10-02T06:28:18.629Z,8.04
2018-10-02T06:30:47.553Z,8.14
2018-10-02T06:33:16.455Z,8.21
2018-10-02T06:35:45.400Z,8.16
2018-10-02T06:38:14.452Z,8.23
2018-10-02T06:40:43.290Z,8.16
2018-10-02T06:43:12.303Z,8.15
2018-10-02T06:45:41.244Z,8.09
2018-10-02T06:48:10.157Z,8.28
2018-10-02T06:50:39.176Z,8.19
2018-10-02T06:53:08.074Z,8.21
2018-10-02T06:55:37.016Z,8.23
2018-10-02T06:58:05.949Z,8.27
2018-10-02T07:00:34.962Z,8.24
2018-10-02T07:03:03.854Z,8.39
2018-10-02T07:05:32.765Z,8.37
2018-10-02T07:08:01.698Z,8.18
2018-10-02T07:10:30.635Z,8.24
2018-10-02T07:12:59.560Z,8.38
2018-10-02T07:15:29.306Z,8.38
2018-10-02T07:17:58.185Z,8.38
2018-10-02T07:20:27.169Z,8.27
2018-10-02T07:22:56.098Z,8.36
2018-10-02T07:25:25.000Z,8.33
2018-10-02T07:27:54.044Z,8.30
2018-10-02T07:30:22.836Z,8.44
2018-10-02T07:32:51.866Z,8.43
2018-10-02T07:35:20.796Z,8.55
2018-10-02T07:37:49.782Z,8.55
2018-10-02T07:40:18.726Z,8.57
2018-10-02T07:42:47.679Z,8.55
2018-10-02T07:45:16.593Z,8.58
2018-10-02T07:47:45.581Z,8.65
2018-10-02T07:50:14.456Z,8.82
2018-10-02T07:52:43.456Z,8.73
2018-10-02T07:55:12.358Z,8.78
2018-10-02T07:57:41.251Z,8.77
2018-10-02T08:00:10.266Z,8.79
2018-10-02T08:02:39.178Z,8.87
2018-10-02T08:05:08.121Z,8.88
2018-10-02T08:07:37.056Z,9.13
2018-10-02T08:10:05.967Z,8.94
2018-10-02T08:12:34.901Z,9.10
2018-10-02T08:15:03.912Z,8.94
2018-10-02T08:17:32.887Z,9.03
2018-10-02T08:20:01.811Z,9.15
2018-10-02T08:22:30.775Z,9.09
2018-10-02T08:24:59.775Z,9.23
2018-10-02T08:27:28.681Z,9.17
2018-10-02T08:29:57.631Z,9.17
2018-10-02T08:32:26.617Z,9.19
2018-10-02T08:34:55.494Z,9.28
2018-10-02T08:37:24.471Z,9.24
2018-10-02T08:39:53.390Z,9.11
2018-10-02T08:42:22.354Z,9.20
2018-10-02T08:44:51.354Z,9.33
2018-10-02T08:47:20.262Z,9.21
2018-10-02T08:49:49.199Z,9.17
2018-10-02T08:52:18.204Z,9.14
2018-10-02T08:54:47.106Z,9.27
2018-10-02T08:57:16.028Z,9.29
2018-10-02T08:59:44.942Z,9.38
2018-10-02T09:02:13.893Z,9.39
2018-10-02T09:04:42.805Z,9.30
2018-10-02T09:07:11.776Z,9.36
2018-10-02T09:09:40.757Z,9.34
2018-10-02T09:12:09.739Z,9.33
2018-10-02T09:14:38.641Z,9.22
2018-10-02T09:17:07.675Z,9.31
2018-10-02T09:19:36.580Z,9.25
2018-10-02T09:22:05.639Z,9.41
2018-10-02T09:24:34.581Z,9.40
2018-10-02T09:27:03.456Z,9.45
2018-10-02T09:29:32.352Z,9.47
2018-10-02T09:32:06.560Z,9.63
2018-10-02T09:34:40.943Z,9.48
2018-10-02T09:37:15.414Z,9.58
2018-10-02T09:39:49.534Z,9.59
2018-10-02T09:42:23.905Z,9.60
2018-10-02T09:44:52.829Z,9.60
2018-10-02T09:47:21.925Z,9.69
2018-10-02T09:49:50.957Z,9.48
2018-10-02T09:52:19.855Z,9.51
2018-10-02T09:54:48.803Z,9.51
2018-10-02T09:57:17.799Z,9.62
2018-10-02T09:59:46.751Z,9.73
2018-10-02T10:02:21.041Z,9.65
2018-10-02T10:04:50.001Z,9.65
2018-10-02T10:07:18.933Z,9.62
2018-10-02T10:09:47.865Z,9.64
2018-10-02T10:12:16.781Z,9.60
2018-10-02T10:14:45.690Z,9.52
2018-10-02T10:17:14.776Z,9.44
2018-10-02T10:19:43.564Z,9.64
2018-10-02T10:22:12.511Z,9.77
2018-10-02T10:24:41.461Z,9.62
2018-10-02T10:27:10.519Z,9.65
2018-10-02T10:29:39.964Z,9.62
2018-10-02T10:32:09.198Z,9.68
2018-10-02T10:34:38.155Z,9.71
2018-10-02T10:37:07.080Z,9.79
2018-10-02T10:39:36.027Z,9.72
2018-10-02T10:42:04.923Z,9.71
2018-10-02T10:44:33.850Z,9.92
2018-10-02T10:47:02.881Z,9.80
2018-10-02T10:49:31.733Z,9.82
2018-10-02T10:52:00.677Z,9.83
2018-10-02T10:54:29.615Z,9.97
2018-10-02T10:56:58.727Z,9.89
2018-10-02T10:59:27.679Z,10.01
2018-10-02T11:01:56.631Z,9.85
2018-10-02T11:04:25.630Z,9.97
2018-10-02T11:06:54.558Z,9.86
2018-10-02T11:09:23.605Z,10.00
2018-10-02T11:11:52.503Z,9.87
2018-10-02T11:14:21.413Z,9.80
2018-10-02T11:16:53.430Z,10.09
2018-10-02T11:19:22.380Z,10.08
2018-10-02T11:21:51.300Z,9.89
2018-10-02T11:24:20.228Z,9.87
2018-10-02T11:26:49.142Z,9.85
2018-10-02T11:29:18.070Z,10.00
2018-10-02T11:31:47.049Z,10.00
2018-10-02T11:34:15.937Z,10.06
2018-10-02T11:36:44.833Z,9.97
2018-10-02T11:39:13.734Z,9.82
2018-10-02T11:41:42.673Z,10.05
2018-10-02T11:44:11.716Z,10.13
2018-10-02T11:46:40.572Z,10.09
2018-10-02T11:49:09.589Z,10.01
2018-10-02T11:51:38.828Z,10.02
2018-10-02T11:54:07.818Z,10.23
2018-10-02T11:56:37.393Z,10.28
2018-10-02T11:59:06.352Z,10.18
2018-10-02T12:01:35.302Z,10.22
2018-10-02T12:04:04.268Z,10.18
2018-10-02T12:06:33.255Z,10.32
2018-10-02T12:09:02.270Z,10.13
2018-10-02T12:11:31.263Z,10.12
2018-10-02T12:14:00.228Z,10.25
2018-10-02T12:16:29.085Z,10.29
2018-10-02T12:18:58.039Z,10.31
2018-10-02T12:21:26.968Z,10.28
2018-10-02T12:23:55.902Z,10.25
2018-10-02T12:26:24.853Z,10.28
2018-10-02T12:28:53.801Z,10.23
2018-10-02T12:31:22.865Z,10.24
2018-10-02T12:33:51.678Z,10.27
2018-10-02T12:36:20.597Z,10.32
2018-10-02T12:38:49.592Z,10.31
2018-10-02T12:41:18.497Z,10.33
2018-10-02T12:43:47.526Z,10.38
2018-10-02T12:46:16.523Z,10.39
2018-10-02T12:48:45.474Z,10.35
2018-10-02T12:51:14.436Z,10.41
2018-10-02T12:53:43.382Z,10.42
2018-10-02T12:56:12.314Z,10.43
2018-10-02T12:58:41.329Z,10.58
2018-10-02T13:01:10.325Z,10.58
2018-10-02T13:03:39.253Z,10.52
2018-10-02T13:06:08.168Z,10.63
2018-10-02T13:08:37.378Z,10.49
2018-10-02T13:11:06.291Z,10.58
2018-10-02T13:13:35.424Z,10.72
2018-10-02T13:16:04.378Z,10.62
2018-10-02T13:18:33.321Z,10.71
2018-10-02T13:21:02.216Z,10.72
2018-10-02T13:23:31.167Z,10.91
2018-10-02T13:26:00.092Z,10.83
2018-10-02T13:28:29.012Z,10.80
2018-10-02T13:30:57.966Z,10.72
2018-10-02T13:33:26.919Z,10.75
2018-10-02T13:35:55.863Z,10.82
2018-10-02T13:38:24.818Z,10.78
2018-10-02T13:40:53.721Z,10.91
2018-10-02T13:43:22.675Z,10.97
2018-10-02T13:45:51.650Z,10.93
2018-10-02T13:48:20.562Z,11.00
2018-10-02T13:50:49.489Z,11.00
2018-10-02T13:53:18.455Z,11.08
2018-10-02T13:55:47.379Z,11.07
2018-10-02T13:58:16.316Z,11.02
2018-10-02T14:00:45.392Z,11.06
2018-10-02T14:03:14.542Z,11.17
2018-10-02T14:05:43.507Z,11.29
2018-10-02T14:08:12.485Z,11.28
2018-10-02T14:10:41.365Z,11.32
2018-10-02T14:13:10.330Z,11.31
2018-10-02T14:15:39.336Z,11.21
2018-10-02T14:18:08.294Z,11.25
2018-10-02T14:20:37.318Z,11.35
2018-10-02T14:23:06.332Z,11.40
2018-10-02T14:25:35.329Z,11.30
2018-10-02T14:28:04.448Z,11.28
2018-10-02T14:30:33.549Z,11.31
2018-10-02T14:33:02.750Z,11.46
2018-10-02T14:35:31.749Z,11.46
2018-10-02T14:38:00.717Z,11.37
2018-10-02T14:40:29.718Z,11.36
2018-10-02T14:42:58.698Z,11.38
2018-10-02T14:45:27.612Z,11.35
2018-10-02T14:47:56.585Z,11.49
2018-10-02T14:50:25.532Z,11.37
2018-10-02T14:52:54.455Z,11.34
2018-10-02T14:55:23.416Z,11.44
2018-10-02T14:57:52.365Z,11.53
2018-10-02T15:00:21.262Z,11.56
2018-10-02T15:02:50.222Z,11.45
2018-10-02T15:05:19.753Z,11.61
2018-10-02T15:07:48.684Z,11.55
2018-10-02T15:10:17.632Z,11.54
2018-10-02T15:12:46.596Z,11.56
2018-10-02T15:15:15.511Z,11.58
2018-10-02T15:17:44.492Z,11.48
2018-10-02T15:20:13.440Z,11.61
2018-10-02T15:22:42.339Z,11.56
2018-10-02T15:25:11.289Z,11.61
2018-10-02T15:27:40.223Z,11.71
2018-10-02T15:30:09.164Z,11.81
2018-10-02T15:32:38.142Z,11.81
2018-10-02T15:35:07.058Z,11.76
2018-10-02T15:37:36.106Z,11.78
2018-10-02T15:40:05.026Z,11.76
2018-10-02T15:42:33.952Z,11.78
2018-10-02T15:45:02.915Z,11.83
2018-10-02T15:47:31.874Z,11.84
2018-10-02T15:50:00.797Z,11.88
2018-10-02T15:52:29.755Z,11.92
2018-10-02T15:54:58.673Z,11.90
2018-10-02T15:57:27.596Z,11.98
2018-10-02T15:59:56.558Z,12.00
2018-10-02T16:02:25.510Z,11.99
2018-10-02T16:04:54.483Z,12.04
2018-10-02T16:07:23.388Z,12.03
2018-10-02T16:09:52.467Z,12.07
2018-10-02T16:12:21.368Z,12.11
2018-10-02T16:14:50.379Z,12.08
2018-10-02T16:17:19.300Z,12.05
2018-10-02T16:19:48.233Z,12.08
2018-10-02T16:22:17.266Z,12.13
2018-10-02T16:24:46.174Z,12.15
2018-10-02T16:27:15.105Z,12.10
2018-10-02T16:29:44.010Z,12.08
2018-10-02T16:32:12.946Z,12.14
2018-10-02T16:34:49.287Z,12.20
2018-10-02T16:37:10.868Z,12.19
2018-10-02T16:39:39.784Z,12.21
2018-10-02T16:42:08.769Z,12.25
2018-10-02T16:44:37.682Z,12.14
2018-10-02T16:47:06.932Z,12.15
2018-10-02T16:49:35.855Z,12.19
2018-10-02T16:52:04.843Z,12.17
2018-10-02T16:54:33.941Z,12.16
2018-10-02T16:57:02.721Z,12.17
2018-10-02T16:59:31.692Z,12.18
2018-10-02T17:02:00.641Z,12.24
2018-10-02T17:04:29.620Z,12.17
2018-10-02T17:06:58.530Z,12.21
2018-10-02T17:09:27.720Z,12.20
2018-10-02T17:11:56.648Z,12.26
2018-10-02T17:14:25.598Z,12.22
2018-10-02T17:16:54.546Z,12.27
2018-10-02T17:19:23.452Z,12.33
2018-10-02T17:21:52.440Z,12.29
2018-10-02T17:24:21.408Z,12.28
2018-10-02T17:26:50.321Z,12.34
2018-10-02T17:29:19.236Z,12.29
2018-10-02T17:31:48.166Z,12.29
2018-10-02T17:34:17.074Z,12.25
2018-10-02T17:36:46.145Z,12.30
2018-10-02T17:39:15.134Z,12.26
2018-10-02T17:41:44.085Z,12.25
2018-10-02T17:44:12.994Z,12.23
2018-10-02T17:46:41.953Z,12.20
2018-10-02T17:49:10.900Z,12.22
2018-10-02T17:51:39.842Z,12.25
2018-10-02T17:54:08.817Z,12.24
2018-10-02T17:56:37.728Z,12.22
2018-10-02T17:59:06.689Z,12.25
2018-10-02T18:01:35.712Z,12.25
2018-10-02T18:04:04.616Z,12.22
2018-10-02T18:06:33.584Z,12.28
2018-10-02T18:09:02.560Z,12.15
2018-10-02T18:11:38.019Z,12.10
2018-10-02T18:14:07.135Z,12.03
2018-10-02T18:16:36.177Z,11.99
2018-10-02T18:19:05.169Z,12.06
2018-10-02T18:21:34.120Z,12.02
2018-10-02T18:24:03.029Z,12.02
2018-10-02T18:26:31.973Z,12.02
2018-10-02T18:29:00.952Z,12.04
2018-10-02T18:31:29.899Z,11.98
2018-10-02T18:33:58.830Z,11.90
2018-10-02T18:36:27.772Z,11.97
2018-10-02T18:38:56.752Z,11.83
2018-10-02T18:41:25.650Z,11.89
2018-10-02T18:43:54.586Z,11.93
2018-10-02T18:46:23.527Z,11.84
2018-10-02T18:48:52.513Z,11.77
2018-10-02T18:51:21.415Z,11.81
2018-10-02T18:53:50.362Z,11.77
2018-10-02T18:56:19.494Z,11.79
2018-10-02T18:58:48.247Z,11.79
2018-10-02T19:01:17.205Z,11.75
2018-10-02T19:03:46.172Z,11.68
2018-10-02T19:06:15.123Z,11.63
2018-10-02T19:08:49.520Z,11.67
2018-10-02T19:11:23.901Z,11.67
2018-10-02T19:13:52.819Z,11.63
2018-10-02T19:16:27.591Z,11.58
2018-10-02T19:18:56.591Z,11.61
2018-10-02T19:21:25.516Z,11.62
2018-10-02T19:23:54.441Z,11.57
2018-10-02T19:26:26.195Z,11.53
2018-10-02T19:28:55.223Z,11.53
2018-10-02T19:31:29.524Z,11.50
2018-10-02T19:33:59.002Z,11.51
2018-10-02T19:36:28.107Z,11.55
2018-10-02T19:39:02.853Z,11.51
2018-10-02T19:41:31.805Z,11.44
2018-10-02T19:44:00.800Z,11.45
2018-10-02T19:46:35.133Z,11.48
2018-10-02T19:49:04.102Z,11.41
2018-10-02T19:51:38.403Z,11.42
2018-10-02T19:54:07.394Z,11.41
2018-10-02T19:56:36.361Z,11.36
2018-10-02T19:59:05.327Z,11.43
2018-10-02T20:01:34.274Z,11.45
2018-10-02T20:04:03.271Z,11.40
2018-10-02T20:06:32.170Z,11.39
2018-10-02T20:09:01.133Z,11.38
2018-10-02T20:11:30.080Z,11.37
2018-10-02T20:13:58.996Z,11.35
2018-10-02T20:16:28.864Z,11.38
2018-10-02T20:18:57.783Z,11.44
2018-10-02T20:21:26.823Z,11.32
2018-10-02T20:23:55.759Z,11.40
2018-10-02T20:26:24.730Z,11.34
2018-10-02T20:28:53.664Z,11.42
2018-10-02T20:31:23.270Z,11.40
2018-10-02T20:33:52.239Z,11.46
2018-10-02T20:36:21.224Z,11.39
2018-10-02T20:38:50.145Z,11.44
2018-10-02T20:41:19.096Z,11.39
2018-10-02T20:43:48.223Z,11.45
2018-10-02T20:46:17.183Z,11.35
2018-10-02T20:48:46.137Z,11.33
2018-10-02T20:51:15.075Z,11.41
2018-10-02T20:53:44.048Z,11.40
2018-10-02T20:56:12.996Z,11.40
2018-10-02T20:58:41.974Z,11.44
2018-10-02T21:01:10.922Z,11.45
2018-10-02T21:03:39.873Z,11.48
2018-10-02T21:06:08.823Z,11.39
2018-10-02T21:08:37.823Z,11.46
2018-10-02T21:11:06.869Z,11.41
2018-10-02T21:13:35.855Z,11.43
2018-10-02T21:16:04.853Z,11.37
2018-10-02T21:18:33.769Z,11.33
2018-10-02T21:21:02.725Z,11.33
2018-10-02T21:23:31.693Z,11.35
2018-10-02T21:26:00.637Z,11.33
2018-10-02T21:28:29.550Z,11.32
2018-10-02T21:30:58.513Z,11.30
2018-10-02T21:33:27.561Z,11.26
2018-10-02T21:35:56.612Z,11.27
2018-10-02T21:38:25.665Z,11.27
2018-10-02T21:40:54.630Z,11.32
2018-10-02T21:43:23.615Z,11.27
2018-10-02T21:45:52.549Z,11.35
2018-10-02T21:48:21.552Z,11.34
2018-10-02T21:50:50.494Z,11.36
2018-10-02T21:53:19.434Z,11.41
2018-10-02T21:55:48.368Z,11.39
2018-10-02T21:58:17.326Z,11.44
2018-10-02T22:00:46.339Z,11.42
2018-10-02T22:03:15.275Z,11.44
2018-10-02T22:05:44.230Z,11.43
2018-10-02T22:08:13.230Z,11.39
2018-10-02T22:10:42.162Z,11.41
2018-10-02T22:13:11.214Z,11.40
2018-10-02T22:15:40.301Z,11.34
2018-10-02T22:18:09.213Z,11.23
2018-10-02T22:20:38.166Z,11.23
2018-10-02T22:23:07.316Z,11.18
2018-10-02T22:25:38.926Z,11.12
2018-10-02T22:28:09.767Z,11.15
2018-10-02T22:30:39.904Z,11.08
2018-10-02T22:33:09.681Z,11.05
2018-10-02T22:35:39.819Z,11.08
2018-10-02T22:38:09.580Z,11.08
2018-10-02T22:40:39.276Z,11.17
2018-10-02T22:43:08.999Z,11.17
2018-10-02T22:45:39.576Z,11.13
2018-10-02T22:48:08.569Z,11.12
2018-10-02T22:50:37.561Z,11.17
2018-10-02T22:53:06.485Z,11.08
2018-10-02T22:55:35.432Z,11.04
2018-10-02T22:58:04.394Z,11.09
2018-10-02T23:00:33.322Z,11.14
2018-10-02T23:03:02.307Z,11.14
2018-10-02T23:05:31.270Z,11.18
2018-10-02T23:08:00.196Z,11.05
2018-10-02T23:10:29.141Z,11.06
2018-10-02T23:12:58.103Z,11.00
2018-10-02T23:15:27.013Z,11.02
2018-10-02T23:17:55.980Z,10.91
2018-10-02T23:20:24.905Z,10.92
2018-10-02T23:22:53.856Z,10.92
2018-10-02T23:25:22.799Z,10.93
2018-10-02T23:27:51.798Z,10.95
2018-10-02T23:30:20.799Z,10.93
2018-10-02T23:32:49.794Z,10.88
2018-10-02T23:35:18.739Z,10.91
2018-10-02T23:37:47.709Z,10.90
2018-10-02T23:40:16.612Z,10.81
2018-10-02T23:42:45.673Z,10.81
2018-10-02T23:45:14.663Z,10.78
2018-10-02T23:47:43.655Z,10.89
2018-10-02T23:50:12.635Z,10.90
2018-10-02T23:52:41.820Z,10.73
2018-10-02T23:55:10.738Z,10.69
2018-10-02T23:57:39.673Z,10.65
